Terminal Aerodrome Forecast
Issued by NWS Knoxville/Tri Cities, TN

Home | Current Version | Previous Version | Text Only | Print | Product List | Glossary On
Versions: 1 2 3 4 5 6 7 8 9 10 11 12 13 14 15 16 17 18 19 20 21 22 23 24 25 26 27 28 29 30 31 32 33 34 35 36 37 38 39 40
000
FTUS44 KMRX 021125
TAFTYS
TAF
KTYS 021125Z 0212/0312 23007KT P6SM SCT035 BKN080 BKN200
     FM021700 23010G15KT P6SM VCTS SCT050CB BKN150
      TEMPO 0220/0224 3SM SHRA BR BKN035 OVC080
     FM030200 23008KT 4SM SHRA BR BKN020 OVC060
     FM030700 23006KT 5SM SHRA BR OVC015=

USA.gov is the U.S. government's official web portal to all federal, state and local government web resources and services.